Limestone, Maine
Current Conditions -  °F | °C
As of 3:54 PM on Tuesday 25 Nov 2014 (Local Time) from KCAR Reporting Station
Overcast Overcast  
Wind Chill: 40°   Ceiling: 5000
Heat Index: 46°   Visibility: 10mi
Dew Point: 27°   Wind: 13mph
Humidity: 47%   Direction: 250°WSW
Pressure: 29.73"   Gusts: 24mph
Location:  46.91°N, 67.83°W
Report Text: KCAR 252054Z AUTO 25011G21KT 10SM OVC050 08/M03 A2973 RMK AO2 PK WND 25029/2035 SLP074 T00781028 53018
Loading
Personal Weather Stations






























Interactive Weather Map New forecast layout! Learn more

10-Day Weather Forecast

Advertisements
Track Severe Weather on mobile